createdAt,value
2019-01-09T00:01:36.849Z,75.47
2019-01-09T00:04:04.950Z,75.72
2019-01-09T00:06:33.163Z,75.69
2019-01-09T00:09:02.373Z,75.81
2019-01-09T00:11:31.660Z,76.00
2019-01-09T00:13:59.859Z,75.96
2019-01-09T00:16:28.146Z,75.09
2019-01-09T00:18:57.272Z,74.72
2019-01-09T00:21:25.649Z,74.47
2019-01-09T00:23:53.962Z,73.77
2019-01-09T00:26:21.940Z,73.61
2019-01-09T00:28:50.657Z,73.62
2019-01-09T00:31:18.611Z,73.82
2019-01-09T00:33:46.566Z,72.91
2019-01-09T00:36:14.557Z,72.60
2019-01-09T00:38:43.684Z,71.73
2019-01-09T00:41:11.747Z,71.29
2019-01-09T00:43:39.748Z,71.04
2019-01-09T00:46:08.127Z,71.31
2019-01-09T00:48:36.230Z,70.68
2019-01-09T00:51:04.166Z,70.91
2019-01-09T00:53:32.524Z,72.35
2019-01-09T00:56:00.836Z,72.93
2019-01-09T00:58:29.302Z,74.66
2019-01-09T01:00:57.309Z,77.90
2019-01-09T01:04:21.703Z,79.21
2019-01-09T01:07:44.298Z,79.09
2019-01-09T01:11:15.276Z,78.77
2019-01-09T01:14:27.130Z,78.17
2019-01-09T01:17:57.917Z,78.57
2019-01-09T01:21:00.781Z,78.28
2019-01-09T01:24:42.684Z,77.67
2019-01-09T01:27:59.826Z,77.65
2019-01-09T01:31:32.929Z,77.73
2019-01-09T01:35:13.507Z,78.62
2019-01-09T01:38:20.956Z,79.97
2019-01-09T01:41:19.235Z,85.13
2019-01-09T01:45:12.034Z,86.96
2019-01-09T01:49:17.720Z,86.95
2019-01-09T01:52:39.631Z,87.40
2019-01-09T01:56:04.847Z,86.42
2019-01-09T01:59:22.913Z,86.92
2019-01-09T02:02:55.462Z,86.24
2019-01-09T02:06:23.808Z,85.31
2019-01-09T02:09:29.510Z,86.49
2019-01-09T02:12:35.886Z,85.46
2019-01-09T02:16:10.530Z,84.97
2019-01-09T02:18:59.698Z,85.62
2019-01-09T02:21:56.268Z,85.24
2019-01-09T02:25:50.050Z,85.22
2019-01-09T02:29:14.822Z,85.52
2019-01-09T02:32:30.909Z,85.72
2019-01-09T02:34:58.886Z,85.39
2019-01-09T02:37:27.729Z,86.31
2019-01-09T02:39:55.699Z,85.17
2019-01-09T02:42:24.382Z,85.25
2019-01-09T02:44:52.330Z,85.07
2019-01-09T02:47:20.276Z,84.63
2019-01-09T02:49:48.244Z,84.62
2019-01-09T02:52:16.648Z,83.71
2019-01-09T02:54:45.616Z,83.10
2019-01-09T02:57:14.105Z,83.49
2019-01-09T02:59:42.048Z,83.86
2019-01-09T03:02:11.806Z,83.18
2019-01-09T03:04:39.732Z,84.23
2019-01-09T03:07:08.280Z,83.28
2019-01-09T03:09:36.801Z,84.39
2019-01-09T03:12:04.829Z,84.21
2019-01-09T03:14:34.018Z,84.98
2019-01-09T03:17:02.103Z,85.42
2019-01-09T03:19:31.449Z,85.28
2019-01-09T03:21:59.399Z,85.13
2019-01-09T03:24:27.592Z,85.10
2019-01-09T03:26:55.884Z,84.34
2019-01-09T03:29:23.908Z,85.19
2019-01-09T03:31:52.665Z,84.64
2019-01-09T03:34:20.917Z,84.21
2019-01-09T03:36:48.899Z,84.74
2019-01-09T03:39:16.869Z,85.53
2019-01-09T03:41:44.883Z,86.13
2019-01-09T03:44:14.019Z,86.46
2019-01-09T03:46:42.272Z,86.07
2019-01-09T03:49:10.436Z,86.67
2019-01-09T03:51:38.965Z,88.05
2019-01-09T03:54:07.904Z,88.61
2019-01-09T03:56:35.904Z,88.62
2019-01-09T03:59:03.834Z,89.18
2019-01-09T04:01:31.860Z,90.06
2019-01-09T04:04:00.021Z,88.83
2019-01-09T04:06:27.999Z,88.81
2019-01-09T04:08:55.979Z,88.12
2019-01-09T04:11:24.254Z,87.79
2019-01-09T04:13:52.227Z,87.94
2019-01-09T04:16:20.431Z,87.32
2019-01-09T04:18:48.376Z,87.71
2019-01-09T04:21:16.732Z,87.44
2019-01-09T04:23:44.720Z,87.76
2019-01-09T04:26:12.997Z,87.25
2019-01-09T04:28:40.941Z,87.40
2019-01-09T04:31:09.232Z,87.84
2019-01-09T04:33:37.200Z,88.01
2019-01-09T04:36:05.177Z,87.54
2019-01-09T04:38:33.210Z,87.08
2019-01-09T04:41:01.724Z,86.78
2019-01-09T04:43:30.019Z,87.23
2019-01-09T04:45:58.552Z,86.45
2019-01-09T04:48:26.493Z,86.34
2019-01-09T04:50:54.770Z,86.30
2019-01-09T04:53:22.642Z,85.89
2019-01-09T04:55:50.663Z,85.77
2019-01-09T04:58:18.621Z,84.98
2019-01-09T05:00:46.600Z,85.43
2019-01-09T05:03:14.567Z,84.69
2019-01-09T05:05:42.420Z,84.39
2019-01-09T05:08:11.391Z,84.42
2019-01-09T05:10:39.700Z,84.40
2019-01-09T05:13:07.675Z,85.12
2019-01-09T05:15:35.848Z,85.15
2019-01-09T05:18:04.065Z,84.08
2019-01-09T05:20:31.998Z,84.29
2019-01-09T05:22:59.939Z,84.15
2019-01-09T05:25:27.904Z,84.45
2019-01-09T05:27:56.125Z,84.81
2019-01-09T05:30:24.117Z,85.22
2019-01-09T05:32:52.089Z,85.39
2019-01-09T05:35:20.087Z,85.26
2019-01-09T05:37:49.182Z,85.25
2019-01-09T05:40:17.157Z,84.82
2019-01-09T05:42:45.081Z,85.29
2019-01-09T05:45:13.547Z,85.38
2019-01-09T05:47:41.576Z,84.40
2019-01-09T05:50:10.178Z,83.74
2019-01-09T05:52:38.783Z,84.18
2019-01-09T05:55:07.552Z,84.42
2019-01-09T05:57:35.841Z,83.54
2019-01-09T06:00:05.350Z,83.67
2019-01-09T06:02:33.326Z,84.36
2019-01-09T06:05:01.427Z,83.19
2019-01-09T06:07:29.704Z,83.43
2019-01-09T06:09:57.795Z,83.96
2019-01-09T06:12:25.875Z,83.98
2019-01-09T06:14:54.478Z,84.76
2019-01-09T06:17:22.940Z,85.93
2019-01-09T06:19:51.229Z,86.94
2019-01-09T06:22:19.577Z,87.29
2019-01-09T06:24:48.133Z,88.21
2019-01-09T06:27:16.073Z,88.74
2019-01-09T06:29:45.472Z,88.96
2019-01-09T06:32:13.732Z,89.47
2019-01-09T06:34:41.721Z,89.38
2019-01-09T06:37:09.880Z,88.50
2019-01-09T06:39:38.169Z,88.61
2019-01-09T06:42:06.463Z,89.41
2019-01-09T06:44:34.440Z,91.28
2019-01-09T06:47:02.924Z,91.76
2019-01-09T06:49:30.850Z,92.16
2019-01-09T06:51:59.605Z,92.29
2019-01-09T06:54:27.613Z,92.56
2019-01-09T06:56:55.563Z,93.38
2019-01-09T06:59:23.617Z,93.57
2019-01-09T07:01:51.594Z,93.14
2019-01-09T07:04:19.902Z,92.81
2019-01-09T07:06:47.951Z,92.28
2019-01-09T07:09:15.942Z,91.17
2019-01-09T07:11:44.227Z,90.66
2019-01-09T07:14:12.832Z,89.72
2019-01-09T07:16:40.814Z,89.07
2019-01-09T07:19:09.241Z,88.79
2019-01-09T07:21:45.249Z,89.11
2019-01-09T07:24:07.659Z,89.87
2019-01-09T07:26:35.593Z,88.72
2019-01-09T07:29:03.809Z,88.54
2019-01-09T07:31:31.770Z,87.37
2019-01-09T07:33:59.733Z,87.71
2019-01-09T07:36:27.669Z,87.56
2019-01-09T07:38:55.685Z,87.98
2019-01-09T07:41:24.500Z,88.16
2019-01-09T07:43:52.948Z,87.49
2019-01-09T07:46:22.357Z,87.87
2019-01-09T07:48:50.633Z,87.77
2019-01-09T07:51:18.883Z,87.50
2019-01-09T07:53:47.201Z,87.06
2019-01-09T07:56:15.464Z,87.26
2019-01-09T07:58:43.895Z,86.61
2019-01-09T08:01:12.309Z,86.65
2019-01-09T08:03:40.607Z,85.78
2019-01-09T08:06:08.655Z,84.48
2019-01-09T08:08:36.628Z,85.58
2019-01-09T08:11:04.856Z,86.06
2019-01-09T08:13:32.913Z,85.07
2019-01-09T08:16:02.371Z,84.80
2019-01-09T08:18:30.646Z,85.33
2019-01-09T08:21:05.216Z,84.14
2019-01-09T08:23:29.103Z,84.25
2019-01-09T08:25:57.136Z,84.38
2019-01-09T08:28:25.212Z,84.94
2019-01-09T08:30:53.907Z,85.17
2019-01-09T08:33:22.253Z,83.75
2019-01-09T08:35:50.294Z,84.69
2019-01-09T08:38:18.586Z,84.35
2019-01-09T08:40:46.938Z,83.01
2019-01-09T08:43:15.295Z,83.98
2019-01-09T08:45:43.290Z,82.85
2019-01-09T08:48:12.470Z,82.98
2019-01-09T08:50:41.009Z,82.97
2019-01-09T08:53:08.948Z,83.68
2019-01-09T08:55:37.188Z,84.31
2019-01-09T08:58:05.509Z,83.72
2019-01-09T09:00:33.565Z,83.81
2019-01-09T09:03:02.287Z,84.07
2019-01-09T09:05:30.210Z,84.10
2019-01-09T09:08:11.528Z,84.23
2019-01-09T09:10:33.806Z,83.87
2019-01-09T09:13:01.769Z,84.15
2019-01-09T09:15:29.744Z,83.40
2019-01-09T09:17:57.718Z,83.25
2019-01-09T09:20:27.521Z,82.67
2019-01-09T09:22:55.544Z,82.65
2019-01-09T09:25:23.568Z,81.79
2019-01-09T09:27:51.526Z,81.44
2019-01-09T09:30:19.545Z,80.48
2019-01-09T09:32:47.486Z,80.04
2019-01-09T09:35:16.015Z,79.23
2019-01-09T09:37:44.602Z,78.88
2019-01-09T09:40:16.266Z,78.61
2019-01-09T09:42:44.591Z,78.05
2019-01-09T09:45:12.900Z,78.13
2019-01-09T09:47:40.882Z,78.28
2019-01-09T09:50:11.325Z,78.38
2019-01-09T09:52:39.305Z,77.13
2019-01-09T09:55:12.807Z,76.47
2019-01-09T09:57:37.741Z,77.06
2019-01-09T10:00:10.181Z,75.33
2019-01-09T10:02:38.223Z,75.89
2019-01-09T10:05:06.386Z,73.50
2019-01-09T10:07:34.624Z,73.62
2019-01-09T10:10:02.571Z,73.54
2019-01-09T10:12:32.367Z,74.06
2019-01-09T10:15:00.629Z,73.71
2019-01-09T10:17:28.573Z,73.30
2019-01-09T10:19:58.493Z,72.55
2019-01-09T10:22:26.501Z,72.90
2019-01-09T10:24:54.781Z,73.08
2019-01-09T10:27:23.021Z,74.12
2019-01-09T10:29:51.233Z,73.87
2019-01-09T10:32:19.244Z,73.79
2019-01-09T10:34:47.594Z,76.07
2019-01-09T10:37:15.560Z,73.70
2019-01-09T10:39:43.531Z,73.48
2019-01-09T10:42:11.786Z,74.50
2019-01-09T10:44:40.081Z,73.72
2019-01-09T10:47:08.339Z,73.14
2019-01-09T10:49:36.289Z,74.28
2019-01-09T10:52:04.461Z,72.42
2019-01-09T10:54:32.506Z,72.22
2019-01-09T10:57:01.565Z,73.63
2019-01-09T10:59:29.492Z,73.97
2019-01-09T11:01:57.779Z,74.08
2019-01-09T11:04:25.829Z,72.71
2019-01-09T11:06:54.045Z,72.41
2019-01-09T11:09:22.391Z,72.32
2019-01-09T11:11:50.823Z,72.42
2019-01-09T11:14:18.833Z,71.67
2019-01-09T11:16:46.988Z,71.33
2019-01-09T11:19:15.047Z,71.94
2019-01-09T11:21:43.257Z,73.31
2019-01-09T11:24:11.229Z,73.31
2019-01-09T11:26:39.261Z,71.72
2019-01-09T11:29:07.717Z,72.21
2019-01-09T11:31:36.065Z,73.25
2019-01-09T11:34:04.053Z,75.69
2019-01-09T11:36:32.055Z,78.10
2019-01-09T11:39:00.759Z,78.76
2019-01-09T11:41:29.374Z,81.38
2019-01-09T11:43:57.605Z,81.02
2019-01-09T11:46:25.960Z,81.74
2019-01-09T11:48:54.218Z,81.86
2019-01-09T11:51:22.171Z,81.85
2019-01-09T11:53:50.455Z,80.51
2019-01-09T11:56:19.422Z,80.40
2019-01-09T11:58:47.718Z,79.52
2019-01-09T12:01:15.686Z,79.20
2019-01-09T12:03:43.634Z,79.18
2019-01-09T12:06:11.997Z,76.43
2019-01-09T12:08:40.198Z,76.91
2019-01-09T12:11:09.030Z,77.16
2019-01-09T12:13:37.387Z,74.79
2019-01-09T12:16:08.095Z,74.33
2019-01-09T12:18:35.209Z,74.12
2019-01-09T12:21:03.169Z,73.12
2019-01-09T12:23:31.514Z,73.48
2019-01-09T12:25:59.514Z,72.85
2019-01-09T12:28:28.031Z,74.03
2019-01-09T12:30:56.050Z,74.38
2019-01-09T12:33:24.046Z,72.07
2019-01-09T12:35:52.369Z,71.72
2019-01-09T12:38:20.639Z,71.74
2019-01-09T12:40:48.925Z,70.91
2019-01-09T12:43:16.921Z,70.79
2019-01-09T12:45:44.885Z,71.39
2019-01-09T12:48:13.195Z,71.78
2019-01-09T12:50:41.322Z,72.33
2019-01-09T12:53:10.317Z,73.94
2019-01-09T12:55:38.283Z,74.52
2019-01-09T12:58:06.227Z,75.25
2019-01-09T13:00:34.222Z,75.95
2019-01-09T13:03:02.519Z,76.40
2019-01-09T13:05:30.598Z,77.59
2019-01-09T13:07:58.943Z,77.37
2019-01-09T13:10:26.912Z,79.27
2019-01-09T13:12:55.295Z,81.51
2019-01-09T13:15:23.574Z,83.45
2019-01-09T13:17:51.580Z,83.26
2019-01-09T13:20:19.540Z,82.72
2019-01-09T13:22:47.509Z,82.23
2019-01-09T13:25:15.762Z,82.28
2019-01-09T13:27:43.787Z,81.69
2019-01-09T13:30:23.065Z,80.69
2019-01-09T13:32:51.044Z,79.19
2019-01-09T13:35:19.118Z,80.00
2019-01-09T13:37:47.089Z,80.81
2019-01-09T13:40:17.500Z,81.94
2019-01-09T13:42:45.514Z,83.35
2019-01-09T13:45:15.529Z,81.20
2019-01-09T13:47:45.633Z,80.60
2019-01-09T13:50:13.911Z,80.40
2019-01-09T13:52:41.922Z,80.17
2019-01-09T13:55:11.830Z,79.44
2019-01-09T13:57:39.805Z,78.90
2019-01-09T14:00:12.571Z,77.18
2019-01-09T14:02:40.542Z,75.15
2019-01-09T14:05:08.669Z,75.80
2019-01-09T14:07:36.653Z,75.05
2019-01-09T14:10:06.802Z,74.05
2019-01-09T14:12:34.928Z,71.81
2019-01-09T14:15:03.699Z,73.86
2019-01-09T14:17:31.749Z,72.05
2019-01-09T14:19:59.759Z,72.98
2019-01-09T14:22:32.947Z,76.67
2019-01-09T14:24:57.661Z,78.68
2019-01-09T14:27:25.674Z,80.02
2019-01-09T14:29:53.974Z,81.18
2019-01-09T14:32:21.963Z,81.19
2019-01-09T14:34:49.966Z,81.68
2019-01-09T14:37:18.289Z,80.72
2019-01-09T14:39:48.199Z,79.17
2019-01-09T14:42:16.355Z,77.15
2019-01-09T14:44:44.719Z,77.58
2019-01-09T14:47:13.115Z,79.44
2019-01-09T14:49:41.687Z,80.11
2019-01-09T14:52:10.472Z,80.84
2019-01-09T14:54:38.443Z,80.77
2019-01-09T14:57:06.439Z,80.72
2019-01-09T14:59:34.527Z,81.15
2019-01-09T15:02:02.905Z,80.28
2019-01-09T15:04:31.167Z,80.49
2019-01-09T15:06:59.373Z,81.34
2019-01-09T15:09:27.390Z,81.82
2019-01-09T15:11:55.733Z,82.53
2019-01-09T15:14:23.995Z,83.29
2019-01-09T15:16:52.174Z,83.63
2019-01-09T15:19:20.282Z,84.32
2019-01-09T15:21:48.252Z,84.50
2019-01-09T15:24:16.220Z,85.48
2019-01-09T15:26:44.926Z,85.99
2019-01-09T15:29:12.942Z,87.25
2019-01-09T15:31:41.055Z,88.05
2019-01-09T15:34:09.406Z,89.38
2019-01-09T15:36:37.451Z,89.32
2019-01-09T15:39:06.735Z,87.99
2019-01-09T15:41:35.050Z,87.57
2019-01-09T15:44:03.048Z,86.07
2019-01-09T15:46:31.086Z,84.75
2019-01-09T15:49:00.521Z,85.31
2019-01-09T15:51:28.548Z,84.74
2019-01-09T15:53:56.621Z,84.35
2019-01-09T15:56:24.622Z,84.74
2019-01-09T15:58:52.821Z,84.76
2019-01-09T16:01:20.856Z,85.26
2019-01-09T16:03:49.113Z,84.99
2019-01-09T16:06:17.260Z,84.65
2019-01-09T16:08:45.891Z,85.43
2019-01-09T16:11:13.941Z,86.19
2019-01-09T16:13:42.213Z,86.27
2019-01-09T16:16:11.621Z,86.50
2019-01-09T16:18:41.179Z,86.10
2019-01-09T16:21:09.571Z,86.93
2019-01-09T16:23:37.875Z,87.44
2019-01-09T16:26:06.268Z,87.77
2019-01-09T16:28:34.559Z,87.88
2019-01-09T16:31:20.162Z,88.31
2019-01-09T16:33:48.039Z,88.63
2019-01-09T16:36:17.604Z,88.12
2019-01-09T16:38:45.862Z,88.96
2019-01-09T16:41:14.086Z,89.93
2019-01-09T16:43:42.293Z,89.19
2019-01-09T16:46:11.371Z,88.52
2019-01-09T16:48:39.710Z,87.94
2019-01-09T16:51:09.336Z,88.74
2019-01-09T16:53:37.375Z,87.99
2019-01-09T16:56:05.751Z,87.68
2019-01-09T16:58:34.046Z,88.21
2019-01-09T17:01:02.046Z,88.36
2019-01-09T17:03:30.031Z,88.20
2019-01-09T17:05:58.156Z,88.64
2019-01-09T17:08:26.573Z,88.75
2019-01-09T17:10:54.526Z,89.03
2019-01-09T17:13:22.848Z,88.82
2019-01-09T17:15:51.157Z,89.33
2019-01-09T17:18:19.506Z,89.24
2019-01-09T17:20:48.691Z,89.12
2019-01-09T17:23:16.833Z,88.83
2019-01-09T17:25:44.853Z,88.81
2019-01-09T17:28:14.545Z,88.31
2019-01-09T17:30:43.882Z,88.22
2019-01-09T17:33:12.333Z,88.31
2019-01-09T17:35:40.450Z,88.39
2019-01-09T17:38:08.478Z,88.30
2019-01-09T17:40:41.200Z,88.18
2019-01-09T17:43:07.368Z,87.96
2019-01-09T17:45:35.606Z,88.06
2019-01-09T17:48:05.692Z,88.80
2019-01-09T17:50:35.693Z,87.64
2019-01-09T17:53:03.763Z,87.98
2019-01-09T17:55:33.145Z,87.10
2019-01-09T17:58:02.467Z,87.67
2019-01-09T18:00:37.347Z,87.32
2019-01-09T18:03:06.604Z,87.42
2019-01-09T18:05:35.872Z,87.94
2019-01-09T18:08:10.494Z,87.77
2019-01-09T18:10:34.927Z,87.53
2019-01-09T18:13:04.129Z,86.71
2019-01-09T18:15:32.269Z,86.08
2019-01-09T18:18:01.547Z,86.97
2019-01-09T18:20:29.969Z,87.02
2019-01-09T18:22:58.059Z,86.74
2019-01-09T18:25:28.401Z,86.38
2019-01-09T18:27:56.585Z,86.40
2019-01-09T18:30:48.985Z,86.66
2019-01-09T18:33:33.144Z,87.31
2019-01-09T18:36:39.207Z,86.69
2019-01-09T18:40:32.677Z,85.96
2019-01-09T18:43:33.316Z,86.12
2019-01-09T18:47:26.485Z,86.74
2019-01-09T18:51:02.454Z,87.04
2019-01-09T18:53:48.883Z,87.19
2019-01-09T18:56:19.147Z,87.58
2019-01-09T18:58:48.283Z,88.13
2019-01-09T19:01:16.348Z,88.56
2019-01-09T19:03:44.618Z,88.58
2019-01-09T19:06:13.937Z,88.77
2019-01-09T19:08:41.983Z,88.52
2019-01-09T19:11:10.421Z,89.05
2019-01-09T19:13:38.498Z,88.71
2019-01-09T19:16:06.913Z,87.81
2019-01-09T19:18:36.053Z,88.09
2019-01-09T19:21:04.161Z,87.87
2019-01-09T19:23:32.745Z,87.77
2019-01-09T19:26:00.972Z,88.06
2019-01-09T19:28:29.410Z,88.85
2019-01-09T19:30:57.796Z,88.82
2019-01-09T19:33:25.872Z,88.41
2019-01-09T19:35:54.004Z,88.09
2019-01-09T19:38:22.041Z,88.58
2019-01-09T19:40:50.550Z,87.75
2019-01-09T19:43:18.524Z,87.70
2019-01-09T19:45:46.606Z,87.28
2019-01-09T19:48:14.779Z,86.99
2019-01-09T19:50:43.186Z,87.46
2019-01-09T19:53:11.284Z,87.22
2019-01-09T19:55:41.935Z,87.96
2019-01-09T19:58:11.123Z,87.98
2019-01-09T20:00:40.382Z,87.84
2019-01-09T20:03:08.781Z,87.97
2019-01-09T20:05:37.110Z,87.52
2019-01-09T20:08:09.000Z,87.68
2019-01-09T20:10:37.404Z,87.97
2019-01-09T20:13:06.789Z,87.12
2019-01-09T20:15:38.770Z,87.07
2019-01-09T20:18:07.962Z,86.83
2019-01-09T20:20:36.224Z,86.88
2019-01-09T20:23:04.738Z,86.73
2019-01-09T20:25:32.919Z,86.53
2019-01-09T20:28:01.449Z,87.03
2019-01-09T20:30:30.284Z,86.26
2019-01-09T20:32:58.488Z,85.95
2019-01-09T20:35:26.906Z,86.00
2019-01-09T20:37:55.209Z,86.51
2019-01-09T20:40:23.950Z,85.34
2019-01-09T20:42:53.863Z,85.14
2019-01-09T20:45:22.014Z,85.70
2019-01-09T20:47:51.949Z,84.71
2019-01-09T20:50:27.155Z,84.72
2019-01-09T20:52:55.311Z,84.41
2019-01-09T20:55:24.456Z,83.71
2019-01-09T20:57:54.520Z,82.59
2019-01-09T21:00:31.726Z,82.41
2019-01-09T21:03:06.463Z,82.94
2019-01-09T21:05:41.688Z,81.74
2019-01-09T21:08:11.884Z,82.02
2019-01-09T21:10:42.091Z,81.81
2019-01-09T21:13:12.148Z,82.25
2019-01-09T21:15:40.268Z,82.18
2019-01-09T21:18:08.388Z,81.41
2019-01-09T21:20:36.507Z,81.37
2019-01-09T21:23:04.914Z,81.14
2019-01-09T21:25:34.339Z,81.81
2019-01-09T21:28:05.515Z,81.00
2019-01-09T21:30:33.906Z,80.88
2019-01-09T21:33:01.985Z,80.92
2019-01-09T21:35:30.546Z,81.78
2019-01-09T21:37:59.014Z,80.86
2019-01-09T21:40:28.663Z,81.10
2019-01-09T21:42:56.716Z,80.84
2019-01-09T21:45:24.856Z,80.15
2019-01-09T21:47:53.762Z,79.77
2019-01-09T21:50:22.507Z,79.00
2019-01-09T21:52:50.613Z,78.78
2019-01-09T21:55:18.859Z,78.18
2019-01-09T21:57:48.379Z,78.43
2019-01-09T22:00:22.865Z,78.62
2019-01-09T22:02:51.099Z,77.90
2019-01-09T22:05:20.429Z,78.58
2019-01-09T22:07:48.618Z,82.28
2019-01-09T22:10:23.755Z,81.69
2019-01-09T22:12:52.151Z,79.36
2019-01-09T22:15:20.811Z,80.42
2019-01-09T22:17:49.029Z,80.07
2019-01-09T22:20:17.313Z,80.53
2019-01-09T22:22:45.446Z,80.92
2019-01-09T22:25:14.124Z,81.55
2019-01-09T22:27:42.049Z,82.92
2019-01-09T22:30:23.043Z,83.91
2019-01-09T22:32:51.325Z,84.58
2019-01-09T22:35:19.437Z,86.40
2019-01-09T22:37:48.560Z,86.10
2019-01-09T22:40:18.230Z,86.64
2019-01-09T22:42:48.268Z,87.04
2019-01-09T22:45:16.836Z,87.30
2019-01-09T22:47:45.887Z,87.82
2019-01-09T22:50:17.393Z,87.49
2019-01-09T22:52:45.934Z,87.21
2019-01-09T22:55:13.986Z,87.80
2019-01-09T22:57:42.024Z,87.46
2019-01-09T23:00:52.585Z,87.65
2019-01-09T23:03:20.907Z,87.48
2019-01-09T23:05:50.337Z,87.86
2019-01-09T23:08:18.419Z,87.73
2019-01-09T23:10:54.511Z,87.95
2019-01-09T23:13:19.042Z,87.83
2019-01-09T23:15:47.532Z,86.63
2019-01-09T23:18:15.816Z,87.02
2019-01-09T23:20:44.059Z,87.53
2019-01-09T23:23:12.346Z,88.17
2019-01-09T23:25:40.982Z,87.57
2019-01-09T23:28:09.044Z,87.58
2019-01-09T23:30:39.412Z,88.09
2019-01-09T23:33:07.841Z,88.10
2019-01-09T23:35:35.819Z,89.90
2019-01-09T23:38:03.966Z,88.82
2019-01-09T23:40:32.080Z,87.85
2019-01-09T23:43:01.747Z,88.09
2019-01-09T23:45:30.002Z,87.87
2019-01-09T23:47:58.119Z,87.59
2019-01-09T23:50:26.466Z,87.58
2019-01-09T23:52:54.524Z,88.43
2019-01-09T23:55:24.797Z,88.33
2019-01-09T23:57:53.074Z,88.21
